Time;durP1;ratioP1;P1;durP2;ratioP2;P2;SDS_P1;SDS_P2;PMS_P1;PMS_P2;Temp;Humidity;BMP_temperature;BMP_pressure;BME280_temperature;BME280_humidity;BME280_pressure;Samples;Min_cycle;Max_cycle;Signal;HPM_P1;HPM_P2
2023/01/06 00:02:20;;;;;;;0.03;0.00;;;19.30;70.00;;;;;;5058747;28;20044;-21
2023/01/06 00:04:45;;;;;;;0.20;0.20;;;19.30;70.00;;;;;;5064922;28;20103;-21
2023/01/06 00:07:11;;;;;;;0.10;0.10;;;19.30;70.00;;;;;;5064196;28;20090;-41
2023/01/06 00:09:37;;;;;;;0.20;0.10;;;19.30;70.10;;;;;;5061854;28;20047;-37
2023/01/06 00:12:03;;;;;;;0.10;0.10;;;19.20;70.10;;;;;;5064900;28;20075;-29
2023/01/06 00:14:28;;;;;;;0.10;0.10;;;19.20;70.10;;;;;;5063589;28;20067;-18
2023/01/06 00:16:54;;;;;;;0.00;0.00;;;19.20;70.20;;;;;;5055183;28;20036;-23
2023/01/06 00:19:20;;;;;;;0.10;0.10;;;19.20;70.20;;;;;;5045288;28;20040;-42
2023/01/06 00:21:45;;;;;;;0.10;0.10;;;19.20;70.10;;;;;;5060368;28;20045;-17
2023/01/06 00:24:11;;;;;;;0.20;0.20;;;19.30;70.10;;;;;;5063031;28;20091;-31
2023/01/06 00:26:37;;;;;;;0.10;0.10;;;19.20;70.20;;;;;;5056753;28;20120;-18
2023/01/06 00:29:02;;;;;;;0.10;0.10;;;19.20;70.30;;;;;;5063489;28;20486;-25
2023/01/06 00:31:28;;;;;;;0.10;0.10;;;19.20;70.30;;;;;;5065105;28;20037;-29
2023/01/06 00:33:56;;;;;;;0.00;0.00;;;19.20;70.30;;;;;;5057911;28;20052;-25
2023/01/06 00:36:22;;;;;;;0.20;0.20;;;19.20;70.20;;;;;;5057106;28;20041;-31
2023/01/06 00:38:48;;;;;;;0.13;0.13;;;19.20;70.10;;;;;;5063009;28;20093;-21
2023/01/06 00:43:58;;;;;;;0.20;0.20;;;19.20;70.20;;;;;;5052376;28;20103;-40
2023/01/06 00:46:27;;;;;;;0.32;0.10;;;19.20;70.10;;;;;;5057687;28;20056;-28
2023/01/06 00:48:53;;;;;;;0.15;0.13;;;19.10;70.20;;;;;;5061802;28;20048;-36
2023/01/06 00:51:19;;;;;;;0.10;0.10;;;19.20;70.20;;;;;;5063984;28;20110;-22
2023/01/06 00:53:44;;;;;;;0.10;0.10;;;19.10;70.30;;;;;;5064178;28;20107;-22
2023/01/06 00:56:10;;;;;;;0.10;0.10;;;19.10;70.30;;;;;;5055435;28;20123;-18
2023/01/06 00:58:36;;;;;;;0.00;0.00;;;19.10;70.30;;;;;;5058027;28;20049;-22
2023/01/06 01:01:05;;;;;;;0.10;0.08;;;19.10;70.30;;;;;;5056742;28;20041;-27
2023/01/06 01:03:32;;;;;;;0.10;0.10;;;19.10;70.30;;;;;;5061907;28;20040;-25
2023/01/06 01:06:02;;;;;;;0.10;0.03;;;19.20;70.20;;;;;;5062399;28;20045;-17
2023/01/06 01:08:27;;;;;;;0.03;0.03;;;19.10;70.20;;;;;;5048698;28;20040;-15
2023/01/06 01:10:54;;;;;;;0.40;0.10;;;19.10;70.30;;;;;;5065671;28;20044;-35
2023/01/06 01:13:19;;;;;;;0.10;0.10;;;19.10;70.20;;;;;;5060752;28;20068;-30
2023/01/06 01:15:45;;;;;;;0.10;0.10;;;19.10;70.20;;;;;;5059790;28;20489;-16
2023/01/06 01:18:10;;;;;;;0.00;0.00;;;19.10;70.20;;;;;;5055114;28;20056;-12
2023/01/06 01:20:36;;;;;;;0.10;0.10;;;19.10;70.30;;;;;;5060209;28;20044;-28
2023/01/06 01:23:01;;;;;;;0.10;0.10;;;19.10;70.30;;;;;;5055709;28;20098;-21
2023/01/06 01:25:27;;;;;;;0.00;0.00;;;19.10;70.20;;;;;;5064387;28;20052;-27
2023/01/06 01:27:53;;;;;;;0.00;0.00;;;19.20;70.10;;;;;;5056964;28;20044;-40
2023/01/06 01:30:21;;;;;;;0.10;0.00;;;19.20;69.90;;;;;;5064186;28;20055;-36
2023/01/06 01:32:47;;;;;;;0.00;0.00;;;19.20;70.00;;;;;;5057335;28;20509;-11
2023/01/06 01:35:12;;;;;;;0.00;0.00;;;19.20;69.90;;;;;;5060106;28;20101;-16
2023/01/06 01:37:38;;;;;;;0.00;0.00;;;19.20;70.00;;;;;;5062990;28;20063;-24
2023/01/06 01:40:04;;;;;;;0.10;0.10;;;19.20;70.00;;;;;;5059104;28;20056;-18
2023/01/06 01:42:30;;;;;;;0.05;0.00;;;19.20;69.90;;;;;;5062644;28;20037;-17
2023/01/06 01:45:01;;;;;;;0.10;0.10;;;19.10;70.10;;;;;;5062970;28;20056;-24
2023/01/06 01:47:59;;;;;;;0.10;0.10;;;19.10;70.10;;;;;;5043403;28;20041;-20
2023/01/06 01:50:39;;;;;;;0.10;0.10;;;19.10;70.00;;;;;;5055041;28;20032;-11
2023/01/06 01:53:10;;;;;;;0.20;0.20;;;19.20;70.00;;;;;;5046710;28;20520;-11
2023/01/06 01:55:36;;;;;;;0.20;0.20;;;19.10;70.10;;;;;;5059541;28;20489;-28
2023/01/06 01:58:12;;;;;;;0.00;0.00;;;19.10;70.10;;;;;;5035407;28;20080;-20
2023/01/06 02:00:37;;;;;;;0.15;0.15;;;19.10;70.30;;;;;;5053151;28;20084;-18
2023/01/06 02:03:03;;;;;;;0.10;0.10;;;19.10;70.30;;;;;;5064196;28;20450;-18
2023/01/06 02:05:29;;;;;;;0.10;0.00;;;19.10;70.30;;;;;;5059965;28;20044;-23
2023/01/06 02:07:56;;;;;;;0.10;0.10;;;19.10;70.30;;;;;;5045135;28;20047;-13
2023/01/06 02:10:22;;;;;;;0.10;0.10;;;19.10;70.10;;;;;;5043292;28;20127;-22
2023/01/06 02:12:49;;;;;;;0.30;0.10;;;19.10;70.10;;;;;;5059195;28;20048;-14
2023/01/06 02:15:15;;;;;;;0.10;0.10;;;19.10;70.10;;;;;;5040213;28;20098;-28
2023/01/06 02:17:47;;;;;;;0.00;0.00;;;19.10;70.00;;;;;;5058625;28;20044;-34
2023/01/06 02:20:50;;;;;;;0.20;0.10;;;19.10;70.20;;;;;;5053318;28;20067;-24
2023/01/06 02:23:42;;;;;;;0.10;0.10;;;19.10;70.10;;;;;;5061839;28;20048;-18
2023/01/06 02:26:30;;;;;;;0.10;0.10;;;19.10;70.10;;;;;;5055324;28;20802;-12
2023/01/06 02:29:00;;;;;;;0.10;0.00;;;19.10;70.00;;;;;;5062017;28;20139;-15
2023/01/06 02:31:59;;;;;;;0.05;0.00;;;19.10;70.10;;;;;;5059401;28;20064;-19
2023/01/06 02:34:55;;;;;;;0.00;0.00;;;19.10;70.10;;;;;;5042222;28;20052;-23
2023/01/06 02:37:29;;;;;;;0.10;0.10;;;19.10;70.20;;;;;;5040157;28;20052;-10
2023/01/06 02:40:07;;;;;;;0.00;0.00;;;19.10;70.20;;;;;;5044118;28;20055;-21
2023/01/06 02:43:04;;;;;;;0.10;0.10;;;19.00;70.20;;;;;;5054852;28;20114;-25
2023/01/06 02:45:54;;;;;;;0.00;0.00;;;19.10;70.10;;;;;;5013368;28;20426;-18
2023/01/06 02:48:45;;;;;;;0.10;0.10;;;19.10;70.00;;;;;;5052709;28;20041;-29
2023/01/06 02:51:21;;;;;;;0.38;0.10;;;19.10;70.10;;;;;;5064442;28;20068;-26
2023/01/06 02:54:06;;;;;;;0.00;0.00;;;19.00;70.20;;;;;;5052496;28;20490;-19
2023/01/06 02:56:33;;;;;;;0.10;0.00;;;19.00;70.20;;;;;;5056518;28;20052;-11
2023/01/06 02:59:07;;;;;;;0.17;0.10;;;19.00;70.30;;;;;;5050478;28;20045;-12
2023/01/06 03:01:35;;;;;;;0.10;0.10;;;19.00;70.20;;;;;;5023051;28;20128;-15
2023/01/06 03:04:04;;;;;;;0.00;0.00;;;19.00;70.30;;;;;;5036883;28;20557;-22
2023/01/06 03:06:30;;;;;;;0.10;0.10;;;19.00;70.20;;;;;;5035841;28;20043;-21
2023/01/06 03:08:56;;;;;;;0.10;0.10;;;19.00;70.10;;;;;;5056495;28;20067;-20
2023/01/06 03:11:23;;;;;;;0.15;0.10;;;19.00;70.20;;;;;;5035879;28;20422;-19
2023/01/06 03:14:02;;;;;;;0.85;0.08;;;19.00;70.20;;;;;;5061473;28;20036;-15
2023/01/06 03:16:28;;;;;;;0.10;0.05;;;19.00;70.20;;;;;;5040752;28;20581;-23
2023/01/06 03:18:53;;;;;;;0.00;0.00;;;19.10;70.10;;;;;;5031884;28;20124;-23
2023/01/06 03:21:21;;;;;;;0.10;0.10;;;19.00;70.40;;;;;;5057571;28;20061;-32
2023/01/06 03:23:47;;;;;;;0.05;0.00;;;19.10;70.00;;;;;;5041437;28;20094;-19
2023/01/06 03:26:12;;;;;;;0.10;0.05;;;19.10;70.00;;;;;;5042424;28;20049;-20
2023/01/06 03:28:38;;;;;;;0.00;0.00;;;19.00;70.00;;;;;;5059101;28;20123;-12
2023/01/06 03:31:10;;;;;;;0.10;0.10;;;19.00;70.10;;;;;;5060165;28;20074;-28
2023/01/06 03:34:13;;;;;;;0.03;0.03;;;19.00;70.10;;;;;;5035214;28;20405;-17
2023/01/06 03:37:02;;;;;;;0.00;0.00;;;19.00;70.30;;;;;;5055084;28;20044;-26
2023/01/06 03:40:06;;;;;;;0.10;0.10;;;19.00;70.30;;;;;;5044092;28;20123;-30
2023/01/06 03:45:51;;;;;;;0.00;0.00;;;19.00;70.30;;;;;;5058467;28;20101;-23
2023/01/06 03:48:22;;;;;;;0.10;0.03;;;19.00;70.40;;;;;;5052317;28;20053;-26
2023/01/06 03:51:09;;;;;;;0.10;0.10;;;19.00;70.50;;;;;;5059879;28;20510;-23
2023/01/06 03:53:41;;;;;;;0.40;0.10;;;19.00;70.50;;;;;;5035117;28;20139;-37
2023/01/06 03:56:10;;;;;;;0.10;0.10;;;19.00;70.50;;;;;;5051078;28;20598;-38
2023/01/06 03:58:35;;;;;;;0.10;0.10;;;19.00;70.60;;;;;;5057717;28;20053;-46
2023/01/06 04:01:01;;;;;;;0.10;0.10;;;19.00;70.60;;;;;;5055848;28;20512;-16
2023/01/06 04:03:26;;;;;;;0.13;0.13;;;19.00;70.70;;;;;;5044389;28;20045;-30
2023/01/06 04:05:53;;;;;;;0.75;0.10;;;19.00;70.70;;;;;;5037051;28;20041;-25
2023/01/06 04:08:19;;;;;;;0.10;0.10;;;19.00;70.70;;;;;;5065452;28;20044;-31
2023/01/06 04:10:44;;;;;;;0.20;0.20;;;19.00;70.50;;;;;;5037863;28;20052;-36
2023/01/06 04:13:10;;;;;;;0.10;0.10;;;19.00;70.60;;;;;;5052928;28;20098;-32
2023/01/06 04:15:35;;;;;;;0.20;0.20;;;19.00;70.70;;;;;;5054951;28;21564;-15
2023/01/06 04:18:01;;;;;;;0.10;0.10;;;19.00;70.70;;;;;;5058217;28;20043;-18
2023/01/06 04:20:27;;;;;;;0.47;0.17;;;19.00;70.80;;;;;;5061294;28;20751;-39
2023/01/06 04:22:54;;;;;;;0.20;0.10;;;19.00;70.60;;;;;;5057302;28;20040;-12
2023/01/06 04:25:20;;;;;;;0.10;0.10;;;19.00;70.50;;;;;;5053873;28;20044;-28
2023/01/06 04:27:46;;;;;;;0.00;0.00;;;19.00;70.50;;;;;;5057055;28;20049;-29
2023/01/06 04:30:11;;;;;;;0.10;0.10;;;19.00;70.50;;;;;;5065337;28;20108;-20
2023/01/06 04:32:37;;;;;;;0.10;0.10;;;19.00;70.60;;;;;;5061702;28;20472;-41
2023/01/06 04:35:03;;;;;;;0.10;0.10;;;18.90;70.70;;;;;;5060314;28;20177;-14
2023/01/06 04:37:28;;;;;;;0.08;0.00;;;19.00;70.60;;;;;;5060256;28;20048;-44
2023/01/06 04:39:54;;;;;;;0.10;0.10;;;19.00;70.60;;;;;;5054646;28;20139;-18
2023/01/06 04:42:20;;;;;;;0.20;0.20;;;19.00;70.40;;;;;;5055349;28;20049;-25
2023/01/06 04:44:45;;;;;;;0.20;0.10;;;19.00;70.60;;;;;;5062212;28;20513;-24
2023/01/06 04:47:11;;;;;;;0.10;0.10;;;19.00;70.60;;;;;;5055069;28;20044;-27
2023/01/06 04:49:36;;;;;;;0.10;0.10;;;19.00;70.70;;;;;;5057483;28;20132;-19
2023/01/06 04:52:02;;;;;;;0.00;0.00;;;18.90;70.70;;;;;;5064430;28;20068;-17
2023/01/06 04:54:28;;;;;;;0.00;0.00;;;19.00;70.60;;;;;;5064535;28;20037;-28
2023/01/06 04:56:53;;;;;;;0.00;0.00;;;18.90;70.60;;;;;;5057554;28;20037;-32
2023/01/06 04:59:19;;;;;;;0.10;0.08;;;18.90;70.70;;;;;;5062495;28;20113;-30
2023/01/06 05:01:44;;;;;;;0.28;0.17;;;18.90;70.70;;;;;;5061210;28;20059;-22
2023/01/06 05:04:10;;;;;;;0.10;0.10;;;19.00;70.50;;;;;;5060560;28;20026;-17
2023/01/06 05:06:38;;;;;;;0.10;0.10;;;19.00;70.50;;;;;;5057629;28;20045;-16
2023/01/06 05:09:04;;;;;;;0.10;0.10;;;19.00;70.50;;;;;;5055850;28;20128;-11
2023/01/06 05:11:29;;;;;;;0.10;0.10;;;18.90;70.50;;;;;;5062378;28;20127;-24
2023/01/06 05:13:55;;;;;;;0.10;0.10;;;19.00;70.50;;;;;;5057779;28;20455;-26
2023/01/06 05:16:28;;;;;;;0.10;0.10;;;19.00;70.50;;;;;;5054671;28;20699;-29
2023/01/06 05:18:54;;;;;;;0.30;0.10;;;18.90;70.40;;;;;;5055442;28;20480;-34
2023/01/06 05:21:22;;;;;;;0.10;0.10;;;19.00;70.50;;;;;;5052948;28;20044;-18
2023/01/06 05:23:48;;;;;;;0.10;0.10;;;19.00;70.50;;;;;;5060600;28;20061;-22
2023/01/06 05:26:19;;;;;;;0.10;0.10;;;19.00;70.40;;;;;;5056840;28;20497;-29
2023/01/06 05:28:44;;;;;;;0.00;0.00;;;19.00;70.40;;;;;;5057939;28;20049;-42
2023/01/06 05:31:10;;;;;;;0.10;0.10;;;18.90;70.50;;;;;;5060674;28;20044;-27
2023/01/06 05:33:36;;;;;;;0.10;0.10;;;19.00;70.40;;;;;;5055637;28;20517;-19
2023/01/06 05:36:03;;;;;;;0.08;0.08;;;19.00;70.40;;;;;;5056467;28;20137;-40
2023/01/06 05:38:29;;;;;;;0.10;0.10;;;18.90;70.40;;;;;;5055588;28;20045;-44
2023/01/06 05:40:55;;;;;;;0.10;0.10;;;18.90;70.40;;;;;;5059369;28;20044;-34
2023/01/06 05:43:21;;;;;;;0.03;0.03;;;18.90;70.40;;;;;;5059506;28;20131;-42
2023/01/06 05:45:47;;;;;;;0.10;0.00;;;18.90;70.40;;;;;;5066306;28;20123;-30
2023/01/06 05:48:12;;;;;;;0.10;0.00;;;18.90;70.50;;;;;;5079797;28;20048;-38
2023/01/06 05:50:38;;;;;;;0.10;0.10;;;18.90;70.40;;;;;;5077227;28;20040;-28
2023/01/06 05:53:03;;;;;;;0.17;0.10;;;18.90;70.50;;;;;;5079899;28;20508;-40
2023/01/06 05:55:29;;;;;;;0.08;0.08;;;19.00;70.40;;;;;;5073655;28;20048;-40
2023/01/06 05:57:55;;;;;;;0.10;0.10;;;18.90;70.40;;;;;;5073841;28;20109;-12
2023/01/06 06:00:20;;;;;;;0.25;0.20;;;18.90;70.30;;;;;;5077502;28;20032;-20
2023/01/06 06:02:46;;;;;;;0.15;0.10;;;18.90;70.30;;;;;;5078223;28;20028;-12
2023/01/06 06:05:11;;;;;;;0.22;0.10;;;19.00;70.20;;;;;;5075321;28;20117;-31
2023/01/06 06:07:37;;;;;;;0.10;0.00;;;19.00;70.00;;;;;;5062566;28;20048;-32
2023/01/06 06:10:03;;;;;;;0.00;0.00;;;18.90;70.20;;;;;;5074747;28;20043;-37
2023/01/06 06:12:29;;;;;;;0.00;0.00;;;18.90;70.30;;;;;;5077491;28;20520;-23
2023/01/06 06:14:54;;;;;;;0.20;0.00;;;18.90;70.30;;;;;;5076323;28;20590;-38
2023/01/06 06:17:20;;;;;;;0.20;0.15;;;18.90;70.30;;;;;;5076434;28;20066;-14
2023/01/06 06:19:45;;;;;;;0.10;0.10;;;18.90;70.30;;;;;;5074402;28;20094;-26
2023/01/06 06:22:11;;;;;;;0.13;0.00;;;19.00;70.30;;;;;;5074457;28;20051;-26
2023/01/06 06:24:37;;;;;;;0.00;0.00;;;19.00;70.10;;;;;;5074583;28;20106;-20
2023/01/06 06:27:02;;;;;;;0.10;0.03;;;19.00;70.10;;;;;;5075428;28;20078;-29
2023/01/06 06:29:28;;;;;;;0.08;0.03;;;18.90;70.20;;;;;;5076700;28;20051;-37
2023/01/06 06:31:53;;;;;;;0.10;0.00;;;18.90;70.20;;;;;;5078901;28;20048;-21
2023/01/06 06:34:19;;;;;;;0.10;0.00;;;18.90;70.30;;;;;;5077357;28;20413;-28
2023/01/06 06:36:44;;;;;;;0.00;0.00;;;18.90;70.30;;;;;;5076736;28;20051;-27
2023/01/06 06:39:10;;;;;;;0.00;0.00;;;18.90;70.30;;;;;;5073298;28;20497;-19
2023/01/06 06:41:36;;;;;;;0.10;0.10;;;18.90;70.30;;;;;;5073582;28;20044;-14
2023/01/06 06:44:02;;;;;;;0.00;0.00;;;18.90;70.20;;;;;;5079085;28;20067;-35
2023/01/06 06:46:28;;;;;;;0.10;0.00;;;18.90;70.10;;;;;;5085126;28;20040;-41
2023/01/06 06:48:54;;;;;;;0.20;0.10;;;18.90;70.20;;;;;;5062566;28;20067;-26
2023/01/06 06:51:20;;;;;;;0.10;0.00;;;18.90;70.20;;;;;;5076760;28;20028;-17
2023/01/06 06:53:46;;;;;;;0.20;0.10;;;18.90;70.20;;;;;;5080838;28;20502;-28
2023/01/06 06:56:12;;;;;;;0.00;0.00;;;18.90;70.10;;;;;;5081688;28;20040;-17
2023/01/06 06:58:38;;;;;;;0.08;0.08;;;18.90;70.20;;;;;;5074710;28;20076;-34
2023/01/06 07:01:08;;;;;;;0.00;0.00;;;18.90;70.20;;;;;;5073456;28;20178;-21
2023/01/06 07:03:33;;;;;;;0.00;0.00;;;18.80;70.40;;;;;;5080431;28;20074;-18
2023/01/06 07:05:59;;;;;;;0.00;0.00;;;18.90;70.30;;;;;;5074001;28;20048;-30
2023/01/06 07:08:26;;;;;;;0.00;0.00;;;18.90;70.20;;;;;;5074571;28;20055;-37
2023/01/06 07:10:52;;;;;;;0.00;0.00;;;18.90;70.20;;;;;;5075042;28;20139;-25
2023/01/06 07:13:17;;;;;;;0.00;0.00;;;18.80;70.20;;;;;;5079591;28;20131;-19
2023/01/06 07:15:43;;;;;;;0.00;0.00;;;18.90;70.20;;;;;;5076586;28;20083;-29
2023/01/06 07:18:08;;;;;;;0.10;0.00;;;18.90;70.10;;;;;;5073196;28;20036;-22
2023/01/06 07:20:35;;;;;;;0.10;0.10;;;18.90;70.00;;;;;;5080412;28;20044;-34
2023/01/06 07:23:00;;;;;;;0.00;0.00;;;18.90;70.10;;;;;;5075747;28;20078;-32
2023/01/06 07:25:26;;;;;;;0.28;0.10;;;18.90;70.00;;;;;;5061860;28;20060;-33
2023/01/06 07:27:53;;;;;;;0.00;0.00;;;18.90;70.20;;;;;;5079071;28;20036;-48
2023/01/06 07:30:18;;;;;;;0.00;0.00;;;18.90;70.10;;;;;;5075167;28;20036;-32
2023/01/06 07:32:44;;;;;;;0.52;0.00;;;18.80;70.10;;;;;;5077781;28;20116;-30
2023/01/06 07:35:09;;;;;;;0.20;0.10;;;18.80;70.10;;;;;;5073008;28;20420;-33
2023/01/06 07:37:35;;;;;;;0.10;0.00;;;18.80;70.20;;;;;;5081783;28;20040;-43
2023/01/06 07:40:00;;;;;;;0.00;0.00;;;18.80;70.30;;;;;;5079226;28;20048;-43
2023/01/06 07:42:26;;;;;;;0.00;0.00;;;18.80;70.20;;;;;;5071879;28;20129;-40
2023/01/06 07:44:52;;;;;;;0.13;0.13;;;18.90;70.20;;;;;;5080082;28;20048;-23
2023/01/06 07:47:17;;;;;;;0.03;0.03;;;18.90;70.20;;;;;;5077123;28;20097;-27
2023/01/06 07:49:43;;;;;;;0.10;0.00;;;18.90;70.10;;;;;;5076629;28;20024;-26
2023/01/06 07:52:08;;;;;;;0.20;0.10;;;18.80;70.20;;;;;;5077089;28;20029;-51
2023/01/06 07:54:34;;;;;;;0.10;0.00;;;18.80;70.00;;;;;;5072838;28;20044;-44
2023/01/06 07:56:59;;;;;;;0.00;0.00;;;18.90;70.10;;;;;;5077135;28;20553;-43
2023/01/06 07:59:25;;;;;;;0.00;0.00;;;18.90;70.00;;;;;;5075813;28;20079;-39
2023/01/06 08:01:51;;;;;;;0.15;0.00;;;18.90;70.00;;;;;;5079194;28;20052;-14
2023/01/06 08:04:16;;;;;;;0.10;0.10;;;18.90;70.10;;;;;;5080984;28;20063;-18
2023/01/06 08:06:42;;;;;;;0.00;0.00;;;18.90;70.00;;;;;;5082058;28;20098;-43
2023/01/06 08:09:07;;;;;;;0.10;0.00;;;18.80;70.10;;;;;;5083922;28;20043;-21
2023/01/06 08:11:33;;;;;;;0.00;0.00;;;18.80;70.10;;;;;;5077956;28;20036;-22
2023/01/06 08:13:58;;;;;;;0.00;0.00;;;18.90;70.10;;;;;;5080151;28;20111;-29
2023/01/06 08:16:24;;;;;;;0.00;0.00;;;18.80;70.20;;;;;;5080642;28;20382;-32
2023/01/06 08:18:49;;;;;;;0.10;0.03;;;18.80;70.10;;;;;;5082966;28;20131;-23
2023/01/06 08:21:15;;;;;;;0.10;0.10;;;18.80;70.10;;;;;;5079324;28;20033;-31
2023/01/06 08:23:41;;;;;;;0.00;0.00;;;18.80;70.10;;;;;;5080338;28;20070;-19
2023/01/06 08:26:12;;;;;;;0.00;0.00;;;18.80;70.10;;;;;;5075538;28;20040;-25
2023/01/06 08:28:38;;;;;;;0.80;0.03;;;18.80;70.00;;;;;;5075438;28;20070;-32
2023/01/06 08:31:07;;;;;;;0.10;0.10;;;18.80;70.00;;;;;;5079022;28;20035;-42
2023/01/06 08:33:32;;;;;;;0.10;0.00;;;18.90;70.00;;;;;;5074342;28;20110;-35
2023/01/06 08:35:59;;;;;;;0.00;0.00;;;18.80;70.00;;;;;;5081333;28;20032;-38
2023/01/06 08:38:25;;;;;;;0.10;0.10;;;18.80;70.00;;;;;;5078483;28;20049;-36
2023/01/06 08:40:53;;;;;;;0.10;0.00;;;18.80;70.20;;;;;;5083280;28;20032;-34
2023/01/06 08:43:19;;;;;;;0.00;0.00;;;18.80;70.10;;;;;;5077964;28;20040;-23
2023/01/06 08:45:45;;;;;;;0.00;0.00;;;18.80;70.20;;;;;;5074636;28;20098;-40
2023/01/06 08:48:10;;;;;;;0.00;0.00;;;18.80;70.20;;;;;;5077145;28;20501;-24
2023/01/06 08:50:39;;;;;;;0.08;0.08;;;18.80;70.10;;;;;;5080056;28;20035;-21
2023/01/06 08:53:05;;;;;;;0.13;0.10;;;18.80;70.10;;;;;;5073124;28;20047;-20
2023/01/06 08:55:31;;;;;;;0.00;0.00;;;18.80;70.10;;;;;;5079425;28;20445;-19
2023/01/06 08:57:56;;;;;;;0.30;0.13;;;18.80;70.00;;;;;;5073634;28;20425;-19
2023/01/06 09:00:22;;;;;;;0.20;0.00;;;18.80;70.00;;;;;;5080134;28;20093;-38
2023/01/06 09:02:47;;;;;;;0.00;0.00;;;18.80;70.00;;;;;;5074006;28;20041;-23
2023/01/06 09:05:13;;;;;;;0.10;0.00;;;18.80;70.00;;;;;;5078833;28;20043;-15
2023/01/06 09:07:39;;;;;;;0.10;0.00;;;18.80;70.10;;;;;;5083750;28;20139;-23
2023/01/06 09:10:05;;;;;;;0.17;0.10;;;18.80;70.10;;;;;;5075355;28;20516;-26
2023/01/06 09:12:30;;;;;;;0.20;0.08;;;18.80;70.10;;;;;;5078277;28;20043;-16
2023/01/06 09:14:56;;;;;;;0.05;0.00;;;18.80;70.00;;;;;;5086560;28;20044;-16
2023/01/06 09:17:22;;;;;;;0.10;0.10;;;18.80;69.90;;;;;;5075295;28;20174;-25
2023/01/06 09:19:48;;;;;;;0.00;0.00;;;18.80;70.00;;;;;;5074675;28;20135;-12
2023/01/06 09:22:13;;;;;;;0.00;0.00;;;18.80;70.10;;;;;;5079027;28;20170;-15
2023/01/06 09:24:39;;;;;;;0.08;0.00;;;18.70;70.30;;;;;;5074426;28;20048;-30
2023/01/06 09:27:05;;;;;;;0.00;0.00;;;18.70;70.30;;;;;;5075552;28;20041;-34
2023/01/06 09:29:30;;;;;;;0.20;0.10;;;18.70;70.20;;;;;;5073629;28;20064;-28
2023/01/06 09:31:56;;;;;;;0.00;0.00;;;18.80;70.10;;;;;;5078220;28;20052;-31
2023/01/06 09:34:21;;;;;;;0.00;0.00;;;18.80;70.20;;;;;;5071949;28;20055;-29
2023/01/06 09:36:47;;;;;;;0.10;0.10;;;18.80;70.10;;;;;;5073487;28;20045;-46
2023/01/06 09:39:12;;;;;;;0.00;0.00;;;18.80;70.10;;;;;;5070371;28;20082;-37
2023/01/06 09:41:50;;;;;;;0.10;0.10;;;18.80;70.10;;;;;;5065597;28;20387;-29
2023/01/06 09:44:20;;;;;;;0.10;0.10;;;18.70;70.20;;;;;;5063250;28;20103;-23
2023/01/06 09:46:47;;;;;;;0.15;0.15;;;18.70;70.30;;;;;;5027786;28;20505;-16
2023/01/06 09:49:39;;;;;;;0.00;0.00;;;18.70;70.30;;;;;;5040397;28;20068;-30
2023/01/06 09:52:27;;;;;;;0.17;0.10;;;18.80;70.10;;;;;;5052887;28;20048;-28
2023/01/06 09:54:58;;;;;;;0.08;0.00;;;18.70;70.20;;;;;;5055239;28;20045;-29
2023/01/06 09:57:32;;;;;;;0.00;0.00;;;18.80;70.10;;;;;;5040326;28;20490;-27
2023/01/06 10:00:02;;;;;;;0.05;0.00;;;18.80;69.90;;;;;;5054670;28;20056;-30
2023/01/06 10:02:28;;;;;;;0.10;0.10;;;18.80;70.00;;;;;;5036647;28;20043;-29
2023/01/06 10:04:54;;;;;;;0.00;0.00;;;18.70;70.10;;;;;;5062294;28;20053;-25
2023/01/06 10:07:35;;;;;;;0.00;0.00;;;18.70;70.20;;;;;;5063654;28;20041;-33
2023/01/06 10:10:23;;;;;;;0.00;0.00;;;18.80;70.10;;;;;;5046173;28;20060;-34
2023/01/06 10:12:56;;;;;;;0.00;0.00;;;18.80;70.00;;;;;;5045371;28;20486;-27
2023/01/06 10:15:35;;;;;;;0.20;0.08;;;18.80;70.10;;;;;;5042031;28;20040;-17
2023/01/06 10:18:17;;;;;;;0.10;0.00;;;18.80;70.00;;;;;;5026285;28;20103;-42
2023/01/06 10:21:12;;;;;;;0.00;0.00;;;18.80;70.00;;;;;;5021813;28;20045;-30
2023/01/06 10:23:52;;;;;;;0.00;0.00;;;18.80;70.00;;;;;;5039459;28;20095;-23
2023/01/06 10:26:30;;;;;;;0.00;0.00;;;18.70;70.10;;;;;;5059777;28;20041;-18
2023/01/06 10:29:00;;;;;;;0.03;0.03;;;18.70;70.10;;;;;;5054956;28;20045;-34
2023/01/06 10:31:27;;;;;;;0.00;0.00;;;18.80;70.00;;;;;;5038776;28;20041;-41
2023/01/06 10:33:54;;;;;;;0.05;0.05;;;18.70;70.10;;;;;;5058249;28;20037;-28
2023/01/06 10:36:25;;;;;;;0.00;0.00;;;18.80;70.10;;;;;;5054260;28;20103;-31
2023/01/06 10:38:51;;;;;;;0.00;0.00;;;18.80;70.00;;;;;;5025440;28;20141;-14
2023/01/06 10:41:38;;;;;;;0.10;0.00;;;18.80;69.90;;;;;;5041135;28;20124;-18
2023/01/06 10:44:03;;;;;;;0.00;0.00;;;18.80;69.80;;;;;;5051600;28;20032;-24
2023/01/06 10:46:33;;;;;;;0.00;0.00;;;18.80;69.90;;;;;;5049221;28;20041;-13
2023/01/06 10:48:59;;;;;;;0.00;0.00;;;18.80;70.00;;;;;;5062027;28;20120;-20
2023/01/06 10:51:35;;;;;;;0.00;0.00;;;18.80;70.00;;;;;;5049700;28;20033;-30
2023/01/06 10:54:02;;;;;;;0.10;0.00;;;18.70;70.00;;;;;;5035197;28;20033;-23
2023/01/06 10:56:29;;;;;;;0.00;0.00;;;18.70;70.80;;;;;;5035274;28;20044;-33
2023/01/06 10:58:57;;;;;;;0.10;0.10;;;18.80;70.00;;;;;;5057865;28;20135;-20
2023/01/06 11:01:26;;;;;;;0.10;0.00;;;18.70;70.00;;;;;;5051808;28;20048;-11
2023/01/06 11:04:10;;;;;;;0.10;0.10;;;18.80;70.10;;;;;;5053705;28;20118;-17
2023/01/06 11:06:49;;;;;;;0.00;0.00;;;18.80;69.90;;;;;;5053022;28;20143;-36
2023/01/06 11:09:38;;;;;;;0.10;0.00;;;18.80;70.60;;;;;;5046531;28;20045;-25
2023/01/06 11:12:25;;;;;;;0.00;0.00;;;18.80;70.00;;;;;;5029610;28;20170;-15
2023/01/06 11:15:04;;;;;;;0.00;0.00;;;18.80;69.70;;;;;;5031358;28;20076;-43
2023/01/06 11:17:30;;;;;;;0.00;0.00;;;18.80;69.80;;;;;;5052265;28;20357;-33
2023/01/06 11:20:14;;;;;;;0.00;0.00;;;18.70;70.00;;;;;;5031716;28;20049;-17
2023/01/06 11:22:40;;;;;;;;;;;18.80;69.90;;;;;;5054037;28;20524;-38
2023/01/06 11:25:29;;;;;;;0.00;0.00;;;18.80;69.70;;;;;;5055431;28;20010;-18
2023/01/06 11:28:15;;;;;;;0.10;0.10;;;18.80;69.90;;;;;;5051989;28;20057;-21
2023/01/06 11:31:07;;;;;;;0.05;0.05;;;18.70;69.90;;;;;;5054034;28;20459;-14
2023/01/06 11:33:34;;;;;;;0.00;0.00;;;18.70;70.00;;;;;;5032050;28;20524;-23
2023/01/06 11:36:09;;;;;;;0.10;0.10;;;18.70;70.00;;;;;;5047502;28;20588;-39
2023/01/06 11:38:47;;;;;;;;;;;18.70;70.00;;;;;;5030647;28;20045;-18
2023/01/06 11:41:26;;;;;;;0.00;0.00;;;18.70;69.90;;;;;;5059200;28;19932;-26
2023/01/06 11:43:53;;;;;;;0.20;0.13;;;18.80;70.00;;;;;;5049745;28;20514;-18
2023/01/06 11:46:19;;;;;;;0.00;0.00;;;18.80;69.90;;;;;;5065161;28;20456;-18
2023/01/06 11:48:47;;;;;;;0.00;0.00;;;18.90;69.70;;;;;;5064976;28;20051;-17
2023/01/06 11:51:13;;;;;;;0.10;0.10;;;18.80;69.80;;;;;;5051431;28;20485;-20
2023/01/06 11:53:39;;;;;;;0.17;0.00;;;18.80;69.80;;;;;;5074470;28;20106;-13
2023/01/06 11:56:13;;;;;;;0.00;0.00;;;18.70;69.90;;;;;;5070486;28;20052;-22
2023/01/06 11:59:11;;;;;;;0.00;0.00;;;18.80;69.80;;;;;;5073191;28;20128;-28
2023/01/06 12:01:49;;;;;;;0.13;0.13;;;18.80;69.70;;;;;;5053355;28;20036;-29
2023/01/06 12:04:30;;;;;;;0.00;0.00;;;18.80;69.70;;;;;;5069190;28;20066;-36
2023/01/06 12:07:20;;;;;;;0.00;0.00;;;18.90;69.60;;;;;;5062878;28;20055;-28
2023/01/06 12:09:47;;;;;;;0.00;0.00;;;18.80;69.60;;;;;;5029085;28;20036;-15
2023/01/06 12:12:18;;;;;;;0.08;0.08;;;18.80;69.70;;;;;;5065894;28;20040;-19
2023/01/06 12:14:44;;;;;;;0.10;0.10;;;18.80;69.90;;;;;;5049496;28;20083;-28
2023/01/06 12:17:28;;;;;;;0.00;0.00;;;18.70;70.00;;;;;;5066164;28;20078;-19
2023/01/06 12:19:56;;;;;;;;;;;18.70;69.80;;;;;;5062028;28;20507;-12
2023/01/06 12:22:36;;;;;;;0.00;0.00;;;18.70;70.00;;;;;;5065720;28;19955;-18
2023/01/06 12:25:02;;;;;;;0.00;0.00;;;18.70;70.00;;;;;;5075754;28;20509;-18
2023/01/06 12:27:40;;;;;;;0.00;0.00;;;18.70;69.90;;;;;;5062485;28;20040;-30
2023/01/06 12:30:10;;;;;;;0.00;0.00;;;18.70;69.90;;;;;;5065553;28;20310;-12
2023/01/06 12:32:38;;;;;;;0.00;0.00;;;18.80;70.60;;;;;;5081347;28;20049;-26
2023/01/06 12:35:04;;;;;;;0.10;0.00;;;18.70;70.00;;;;;;5065764;28;20044;-23
2023/01/06 12:37:41;;;;;;;0.00;0.00;;;18.70;69.90;;;;;;5080650;28;20040;-11
2023/01/06 12:40:15;;;;;;;0.00;0.00;;;18.80;69.90;;;;;;5067463;28;20044;-29
2023/01/06 12:43:14;;;;;;;0.00;0.00;;;18.80;69.80;;;;;;5068323;28;20463;-15
2023/01/06 12:46:03;;;;;;;0.10;0.05;;;18.80;69.80;;;;;;5052810;28;20156;-25
2023/01/06 12:48:48;;;;;;;0.00;0.00;;;18.80;69.80;;;;;;5076095;28;20040;-16
2023/01/06 12:51:15;;;;;;;;;;;18.80;69.80;;;;;;5080526;28;20044;-28
2023/01/06 12:53:56;;;;;;;0.10;0.08;;;18.70;69.70;;;;;;5057239;28;19908;-29
2023/01/06 12:56:49;;;;;;;0.10;0.03;;;18.80;69.80;;;;;;5069267;28;20040;-31
2023/01/06 12:59:27;;;;;;;0.00;0.00;;;18.80;69.80;;;;;;5049706;28;20051;-11
2023/01/06 13:01:58;;;;;;;0.00;0.00;;;18.80;69.70;;;;;;5070947;28;20047;-25
2023/01/06 13:04:32;;;;;;;0.20;0.10;;;18.80;69.70;;;;;;5053423;28;20048;-10
2023/01/06 13:07:16;;;;;;;0.05;0.05;;;18.70;69.70;;;;;;5082079;28;20121;-9
2023/01/06 13:10:19;;;;;;;0.10;0.00;;;18.80;69.80;;;;;;5076004;28;20131;-10